Time;durP1;ratioP1;P1;durP2;ratioP2;P2;SDS_P1;SDS_P2;PMS_P1;PMS_P2;Temp;Humidity;BMP_temperature;BMP_pressure;BME280_temperature;BME280_humidity;BME280_pressure;Samples;Min_cycle;Max_cycle;Signal;HPM_P1;HPM_P2
2021/07/31 00:05:11;;;;;;;;;;;;;;;;;;;;;
2021/07/31 00:11:09;;;;;;;;;;;;;;;;;;;;;
2021/07/31 00:23:57;;;;;;;9.97;7.17;;;;;;;19.44;65.63;97882.70;261597;1088;22812;-71
2021/07/31 00:30:02;;;;;;;11.65;7.45;;;;;;;19.46;65.61;97885.05;261838;1090;26241;-72
2021/07/31 00:36:28;;;;;;;10.73;6.90;;;;;;;19.51;65.92;97876.58;261788;1090;22841;-72
2021/07/31 00:43:05;;;;;;;10.65;7.35;;;;;;;19.56;65.82;97873.55;261321;1090;22792;-70
2021/07/31 00:49:15;;;;;;;9.23;7.80;;;;;;;19.62;66.03;97885.64;261751;1088;23491;-72
2021/07/31 00:55:17;;;;;;;;;;;;;;;;;;;;;
2021/07/31 01:00:58;;;;;;;9.47;7.13;;;;;;;19.79;65.90;97905.23;261748;1090;26037;-71
2021/07/31 01:06:46;;;;;;;10.00;7.35;;;;;;;19.80;65.92;97904.89;261715;1090;22806;-71
2021/07/31 01:12:33;;;;;;;12.25;8.30;;;;;;;19.74;65.98;97897.41;261923;1088;22809;-71
2021/07/31 01:18:38;;;;;;;13.25;8.25;;;;;;;19.65;65.78;97895.76;261825;1090;22863;-70
2021/07/31 01:24:42;;;;;;;9.25;7.30;;;;;;;19.56;65.78;97892.56;261810;1090;22866;-70
2021/07/31 01:30:47;;;;;;;;;;;;;;;;;;;;;
2021/07/31 01:36:26;;;;;;;9.90;7.45;;;;;;;19.40;66.57;97870.23;262254;1090;22809;-71
2021/07/31 01:42:03;;;;;;;9.10;7.15;;;;;;;19.29;66.48;97864.66;262053;1089;22852;-71
2021/07/31 01:47:43;;;;;;;;;;;;;;;;;;;;;
2021/07/31 02:00:23;;;;;;;10.27;7.37;;;;;;;19.22;67.02;97865.34;261764;1090;22908;-71
2021/07/31 02:07:27;;;;;;;9.20;7.75;;;;;;;19.15;67.01;97859.83;261821;1088;22782;-71
2021/07/31 02:14:25;;;;;;;12.45;7.70;;;;;;;19.08;67.43;97855.11;261711;1090;23024;-70
2021/07/31 02:34:23;;;;;;;13.80;7.70;;;;;;;18.75;67.66;97839.50;261735;1089;22824;-71
2021/07/31 02:40:20;;;;;;;11.03;7.60;;;;;;;18.58;67.81;97849.70;261798;1089;22798;-71
2021/07/31 02:52:44;;;;;;;12.10;8.50;;;;;;;18.43;69.14;97835.13;261747;1090;25855;-71
2021/07/31 03:05:32;;;;;;;9.55;7.50;;;;;;;18.41;69.58;97850.19;261534;1090;22767;-72
2021/07/31 03:11:39;;;;;;;10.80;8.00;;;;;;;18.44;69.75;97849.48;261734;1090;24320;-70
2021/07/31 03:17:56;;;;;;;11.10;8.80;;;;;;;18.48;69.65;97834.03;261699;1090;22856;-71
2021/07/31 03:23:32;;;;;;;11.90;8.55;;;;;;;18.49;69.49;97829.41;261742;1093;22946;-71
2021/07/31 03:29:43;;;;;;;9.87;8.13;;;;;;;18.47;69.61;97838.69;261716;1090;23682;-71
2021/07/31 03:35:49;;;;;;;11.07;8.10;;;;;;;18.67;69.81;97843.25;261766;1090;23404;-70
2021/07/31 04:02:54;;;;;;;;;;;;;;;;;;;;;
2021/07/31 04:09:32;;;;;;;7.25;6.55;;;;;;;19.79;68.05;97845.45;261714;1089;22876;-71
2021/07/31 04:23:21;;;;;;;;;;;;;;;;;;;;;
2021/07/31 04:37:16;;;;;;;;;;;;;;;;;;;;;
2021/07/31 04:44:23;;;;;;;9.87;7.70;;;;;;;19.76;68.54;97904.05;261887;1090;25877;-71
2021/07/31 04:50:47;;;;;;;9.07;7.17;;;;;;;19.78;68.51;97918.05;261557;1090;25877;-71
2021/07/31 04:57:14;;;;;;;8.70;7.40;;;;;;;19.91;68.43;97920.53;261744;1090;22825;-71
2021/07/31 05:03:47;;;;;;;8.18;6.48;;;;;;;20.21;68.49;97911.53;261741;1088;22821;-71
2021/07/31 05:09:54;;;;;;;9.03;6.77;;;;;;;20.50;68.08;97918.03;261759;1090;22908;-71
2021/07/31 05:29:21;;;;;;;8.28;5.68;;;;;;;21.72;66.33;97925.47;261730;1090;22822;-71
2021/07/31 05:36:06;;;;;;;8.68;5.98;;;;;;;21.88;65.53;97931.34;261546;1089;22933;-71
2021/07/31 05:42:16;;;;;;;7.10;5.35;;;;;;;22.09;65.16;97936.11;261662;1093;22799;-70
2021/07/31 05:48:57;;;;;;;5.93;5.33;;;;;;;22.15;64.64;97933.78;261725;1089;22876;-71
2021/07/31 06:02:36;;;;;;;7.48;6.15;;;;;;;22.12;64.36;97948.17;261547;1090;22941;-70
2021/07/31 06:08:52;;;;;;;7.63;6.83;;;;;;;22.26;64.46;97942.77;261557;1093;25655;-71
2021/07/31 06:21:41;;;;;;;7.93;5.43;;;;;;;22.47;63.45;97963.88;261630;1093;22866;-70
2021/07/31 06:27:57;;;;;;;5.95;5.35;;;;;;;22.58;63.13;97965.83;261668;1089;22856;-70
2021/07/31 06:34:31;;;;;;;;;;;;;;;;;;;;;
2021/07/31 06:41:27;;;;;;;5.50;5.00;;;;;;;22.88;62.71;97976.39;262022;1089;22863;-72
2021/07/31 06:47:46;;;;;;;7.18;5.53;;;;;;;23.03;62.78;97986.13;261998;1090;22937;-73
2021/07/31 06:54:12;;;;;;;;;;;;;;;;;;;;;
2021/07/31 07:00:55;;;;;;;;;;;;;;;;;;;;;
2021/07/31 07:07:37;;;;;;;;;;;;;;;;;;;;;
2021/07/31 07:13:57;;;;;;;7.30;5.63;;;;;;;22.52;62.66;98028.20;262199;1090;22830;-75
2021/07/31 07:21:03;;;;;;;7.40;4.90;;;;;;;22.42;62.84;98029.73;262031;1090;22863;-72
2021/07/31 07:26:25;;;;;;;5.87;5.27;;;;;;;22.27;62.79;98026.14;262138;1088;26076;-73
2021/07/31 07:32:33;;;;;;;6.10;4.88;;;;;;;22.18;63.35;98021.05;262288;1090;22783;-72
2021/07/31 07:39:04;;;;;;;5.35;4.85;;;;;;;22.11;63.41;98022.99;262401;1090;22807;-72
2021/07/31 07:45:22;;;;;;;6.10;4.77;;;;;;;21.96;63.85;98016.69;262372;1090;24435;-72
2021/07/31 08:05:03;;;;;;;7.35;4.90;;;;;;;22.23;64.30;98041.72;262633;1090;22929;-72
2021/07/31 08:12:07;;;;;;;7.53;4.98;;;;;;;22.31;63.88;98042.53;262414;1092;22849;-73
2021/07/31 08:18:41;;;;;;;;;;;;;;;;;;;;;
2021/07/31 08:25:09;;;;;;;;;;;;;;;;;;;;;
2021/07/31 08:32:04;;;;;;;6.40;5.25;;;;;;;22.46;63.98;98029.76;262423;1093;22950;-74
2021/07/31 08:45:22;;;;;;;6.23;5.43;;;;;;;23.24;63.25;98031.04;262402;1089;26331;-73
2021/07/31 08:51:29;;;;;;;6.85;6.18;;;;;;;23.70;61.96;98035.66;263394;1090;22787;-74
2021/07/31 08:58:35;;;;;;;6.78;6.15;;;;;;;24.09;61.33;98037.52;262538;1089;22850;-73
2021/07/31 09:05:08;;;;;;;;;;;;;;;;;;;;;
2021/07/31 09:11:53;;;;;;;9.15;6.10;;;;;;;24.84;59.66;98023.84;262356;1090;22772;-74
2021/07/31 09:17:51;;;;;;;;;;;;;;;;;;;;;
2021/07/31 09:24:44;;;;;;;6.93;6.33;;;;;;;25.79;58.26;98015.14;262567;1090;22940;-73
2021/07/31 09:31:40;;;;;;;;;;;;;;;;;;;;;
2021/07/31 09:37:37;;;;;;;9.95;8.95;;;;;;;27.53;54.28;98002.46;262469;1090;22915;-72
2021/07/31 09:44:03;;;;;;;6.80;6.17;;;;;;;27.96;53.33;98000.86;262525;1089;24152;-73
2021/07/31 09:49:15;;;;;;;6.63;6.03;;;;;;;27.90;51.63;97997.04;262584;1089;23018;-72
2021/07/31 09:56:12;;;;;;;7.70;6.50;;;;;;;27.88;51.45;97997.47;262750;1090;22914;-74
2021/07/31 10:01:56;;;;;;;6.35;5.75;;;;;;;28.02;50.30;97984.66;262646;1088;23560;-73
2021/07/31 10:14:50;;;;;;;7.65;6.65;;;;;;;28.67;49.62;97973.78;262530;1090;22782;-75
2021/07/31 10:20:30;;;;;;;6.43;5.73;;;;;;;28.77;47.95;97974.73;263011;1089;23107;-73
2021/07/31 10:26:29;;;;;;;6.90;5.23;;;;;;;28.84;47.71;97965.52;262613;1090;22807;-74
2021/07/31 10:40:03;;;;;;;;;;;;;;;;;;;;;
2021/07/31 10:47:10;;;;;;;6.65;6.05;;;;;;;29.17;45.15;97943.41;262486;1090;22809;-70
2021/07/31 10:53:42;;;;;;;6.13;5.55;;;;;;;29.28;45.53;97943.16;262502;1090;23790;-70
2021/07/31 11:05:50;;;;;;;6.38;5.78;;;;;;;29.75;44.66;97934.37;262658;1090;23539;-71
2021/07/31 11:11:24;;;;;;;6.00;5.37;;;;;;;29.59;44.70;97937.19;262353;1090;24358;-71
2021/07/31 11:23:52;;;;;;;6.15;5.65;;;;;;;29.40;43.73;97925.89;262331;1090;25852;-71
2021/07/31 11:29:26;;;;;;;6.95;6.18;;;;;;;29.50;44.25;97922.05;262298;1092;26299;-71
2021/07/31 11:35:07;;;;;;;7.65;7.05;;;;;;;29.89;43.43;97932.45;262252;1090;22908;-71
2021/07/31 11:41:13;;;;;;;;;;;;;;;;;;;;;
2021/07/31 11:47:33;;;;;;;6.33;5.53;;;;;;;29.66;43.70;97950.78;262291;1093;22855;-70
2021/07/31 11:59:52;;;;;;;;;;;;;;;;;;;;;
2021/07/31 12:05:59;;;;;;;;;;;;;;;;;;;;;
2021/07/31 12:12:00;;;;;;;6.80;6.10;;;;;;;30.51;42.77;97934.90;261744;1090;22782;-70
2021/07/31 12:17:59;;;;;;;6.30;5.75;;;;;;;30.67;42.46;97940.30;261828;1090;22953;-70
2021/07/31 12:24:11;;;;;;;;;;;;;;;;;;;;;
2021/07/31 12:31:13;;;;;;;;;;;;;;;;;;;;;
2021/07/31 12:37:36;;;;;;;7.90;7.20;;;;;;;29.56;42.20;97949.88;261762;1090;22887;-71
2021/07/31 12:43:46;;;;;;;;;;;;;;;;;;;;;
2021/07/31 12:49:56;;;;;;;7.57;6.77;;;;;;;28.37;45.18;97961.06;261725;1090;22784;-71
2021/07/31 12:55:53;;;;;;;7.30;6.60;;;;;;;26.76;48.39;97985.67;261746;1090;22801;-70
2021/07/31 13:02:15;;;;;;;7.45;6.75;;;;;;;25.24;52.40;97970.27;261797;1090;24368;-74
2021/07/31 13:07:41;;;;;;;8.40;6.38;;;;;;;24.81;55.99;97959.69;262018;1090;22761;-74
2021/07/31 13:14:19;;;;;;;;;;;;;;;;;;;;;
2021/07/31 13:20:58;;;;;;;7.30;6.63;;;;;;;25.42;58.21;97950.93;261907;1089;24363;-74
2021/07/31 13:27:06;;;;;;;8.28;6.90;;;;;;;25.73;57.62;97950.17;261718;1090;22782;-74
2021/07/31 13:33:52;;;;;;;7.60;6.90;;;;;;;25.71;57.01;97942.36;261812;1089;25906;-72
2021/07/31 13:40:46;;;;;;;6.58;5.98;;;;;;;25.87;55.88;97950.02;261672;1090;22831;-74
2021/07/31 13:54:29;;;;;;;6.83;6.13;;;;;;;26.15;54.91;97944.58;261617;1090;27682;-74
2021/07/31 14:15:23;;;;;;;;;;;;;;;;;;;;;
2021/07/31 14:29:05;;;;;;;;;;;;;;;;;;;;;
2021/07/31 14:36:11;;;;;;;6.83;6.18;;;;;;;27.78;52.85;97918.67;261782;1090;24389;-76
2021/07/31 14:49:57;;;;;;;7.20;6.20;;;;;;;28.07;51.70;97927.13;261532;1090;22907;-73
2021/07/31 15:09:50;;;;;;;;;;;;;;;;;;;;;
2021/07/31 15:16:44;;;;;;;7.85;6.98;;;;;;;27.59;50.18;97928.48;261597;1089;23574;-73
2021/07/31 15:22:54;;;;;;;8.03;7.33;;;;;;;27.46;50.46;97929.14;261654;1090;26312;-72
2021/07/31 15:36:41;;;;;;;7.83;7.13;;;;;;;27.77;49.78;97928.92;261760;1090;22787;-72
2021/07/31 15:43:27;;;;;;;7.40;6.70;;;;;;;27.71;49.23;97918.83;261773;1089;22809;-73
2021/07/31 15:49:52;;;;;;;;;;;;;;;;;;;;;
2021/07/31 15:56:27;;;;;;;7.63;7.03;;;;;;;27.30;49.20;97907.80;261849;1090;26340;-73
2021/07/31 16:03:09;;;;;;;;;;;;;;;;;;;;;
2021/07/31 16:15:58;;;;;;;;;;;;;;;;;;;;;
2021/07/31 16:22:49;;;;;;;;;;;;;;;;;;;;;
2021/07/31 16:29:10;;;;;;;;;;;;;;;;;;;;;
2021/07/31 16:35:56;;;;;;;7.40;6.53;;;;;;;27.20;49.44;97875.00;262024;1090;22881;-73
2021/07/31 16:42:28;;;;;;;;;;;;;;;;;;;;;
2021/07/31 16:49:26;;;;;;;7.43;6.73;;;;;;;27.04;50.54;97892.97;261668;1090;22809;-73
2021/07/31 16:56:30;;;;;;;6.08;5.58;;;;;;;27.04;50.57;97889.45;261732;1089;23461;-73
2021/07/31 17:02:34;;;;;;;15.20;13.70;;;;;;;27.16;50.28;97888.84;261874;1090;26303;-74
2021/07/31 17:08:37;;;;;;;;;;;;;;;;;;;;;
2021/07/31 17:15:02;;;;;;;6.53;6.00;;;;;;;27.29;49.25;97881.49;261753;1090;22940;-73
2021/07/31 17:21:25;;;;;;;7.25;6.05;;;;;;;27.32;49.73;97882.63;261795;1090;22761;-73
2021/07/31 17:28:09;;;;;;;7.40;6.80;;;;;;;27.23;49.58;97885.95;261907;1089;22782;-73
2021/07/31 17:34:25;;;;;;;;;;;;;;;;;;;;;
2021/07/31 17:41:10;;;;;;;;;;;;;;;;;;;;;
2021/07/31 17:47:58;;;;;;;;;;;;;;;;;;;;;
2021/07/31 17:54:26;;;;;;;12.25;9.75;;;;;;;26.18;50.68;97892.39;261377;1090;22776;-72
2021/07/31 18:00:09;;;;;;;10.18;9.10;;;;;;;25.90;51.68;97899.05;262096;1093;26251;-72
2021/07/31 18:06:36;;;;;;;10.43;9.15;;;;;;;25.61;52.65;97894.68;261978;1090;24379;-73
2021/07/31 18:20:46;;;;;;;8.90;8.00;;;;;;;24.86;54.65;97898.20;261716;1089;22779;-72
2021/07/31 18:41:16;;;;;;;12.60;11.30;;;;;;;23.83;57.67;97931.32;261907;1093;26319;-73
2021/07/31 18:48:14;;;;;;;10.43;9.33;;;;;;;23.60;58.81;97932.56;261665;1088;22879;-72
2021/07/31 18:54:57;;;;;;;;;;;;;;;;;;;;;
2021/07/31 19:15:45;;;;;;;8.70;6.93;;;;;;;23.03;59.58;97963.52;261839;1090;22851;-72
2021/07/31 19:21:53;;;;;;;7.33;6.53;;;;;;;22.93;59.79;97972.47;261862;1090;22805;-73
2021/07/31 19:28:13;;;;;;;10.05;6.30;;;;;;;22.81;59.83;97970.93;261937;1090;22943;-72
2021/07/31 19:35:21;;;;;;;7.50;5.65;;;;;;;22.61;59.77;97984.95;261835;1090;22806;-73
2021/07/31 19:42:10;;;;;;;;;;;;;;;;;;;;;
2021/07/31 19:55:27;;;;;;;7.03;6.33;;;;;;;22.12;60.67;97989.88;261960;1089;22782;-73
2021/07/31 20:02:06;;;;;;;7.08;5.60;;;;;;;21.98;60.35;97992.53;261846;1090;22830;-73
2021/07/31 20:08:05;;;;;;;6.50;5.10;;;;;;;21.84;60.04;97985.10;262136;1089;22782;-72
2021/07/31 20:13:40;;;;;;;;;;;;;;;;;;;;;
2021/07/31 20:19:34;;;;;;;7.53;4.90;;;;;;;21.73;60.58;97990.50;262094;1089;22788;-74
2021/07/31 20:26:03;;;;;;;5.93;4.87;;;;;;;21.67;59.66;98005.63;262157;1089;22864;-73
2021/07/31 20:32:09;;;;;;;7.43;5.97;;;;;;;21.58;60.11;98013.38;262086;1090;22950;-71
2021/07/31 20:38:42;;;;;;;14.43;9.18;;;;;;;21.49;60.28;98022.64;262080;1089;22782;-73
2021/07/31 20:51:30;;;;;;;12.40;9.00;;;;;;;21.33;60.90;98033.80;261940;1093;22799;-72
2021/07/31 20:57:15;;;;;;;12.85;10.00;;;;;;;21.22;61.28;98037.63;262039;1093;25977;-72
2021/07/31 21:03:42;;;;;;;13.83;10.48;;;;;;;20.96;61.85;98048.30;261767;1093;22961;-73
2021/07/31 21:09:55;;;;;;;;;;;;;;;;;;;;;
2021/07/31 21:16:09;;;;;;;11.47;8.93;;;;;;;20.59;63.22;98051.80;262145;1090;25893;-72
2021/07/31 21:22:55;;;;;;;11.05;7.90;;;;;;;20.35;63.80;98047.66;261877;1093;23381;-73
2021/07/31 21:29:39;;;;;;;9.30;7.13;;;;;;;20.28;64.96;98055.73;261726;1093;24368;-72
2021/07/31 21:36:26;;;;;;;7.90;6.60;;;;;;;20.24;65.42;98052.95;261764;1090;22785;-72
2021/07/31 21:49:42;;;;;;;8.60;6.80;;;;;;;20.00;65.67;98054.22;261897;1090;22816;-74
2021/07/31 21:55:26;;;;;;;;;;;;;;;;;;;;;
2021/07/31 22:02:21;;;;;;;8.65;7.50;;;;;;;19.91;66.26;98054.50;261925;1089;22953;-72
2021/07/31 22:08:42;;;;;;;9.50;7.50;;;;;;;19.88;66.66;98060.68;261985;1090;22792;-73
2021/07/31 22:15:44;;;;;;;;;;;;;;;;;;;;;
2021/07/31 22:29:28;;;;;;;11.40;9.90;;;;;;;19.56;67.79;98060.97;261579;1093;22799;-72
2021/07/31 22:36:18;;;;;;;13.45;10.50;;;;;;;19.53;67.52;98075.30;261562;1090;22950;-72
2021/07/31 23:04:26;;;;;;;13.85;11.10;;;;;;;18.90;69.79;98100.98;261549;1093;22953;-72
2021/07/31 23:17:40;;;;;;;13.90;10.15;;;;;;;18.69;70.52;98090.50;261754;1090;25980;-72
2021/07/31 23:24:19;;;;;;;14.17;11.23;;;;;;;18.62;70.92;98100.08;261748;1090;22784;-73
2021/07/31 23:38:10;;;;;;;18.90;12.10;;;;;;;18.52;71.51;98100.64;261679;1090;22766;-72
